sensor_id;sensor_type;location;lat;lon;timestamp;pressure;altitude;pressure_sealevel;temperature;humidity
21594;BME280;10959;51.328;7.322;2022-08-21T00:01:18;98955.09;;;19.24;68.33
21594;BME280;10959;51.328;7.322;2022-08-21T00:03:45;98940.69;;;19.22;68.46
21594;BME280;10959;51.328;7.322;2022-08-21T00:06:11;98942.69;;;19.20;68.42
21594;BME280;10959;51.328;7.322;2022-08-21T00:08:38;98943.69;;;19.19;68.49
21594;BME280;10959;51.328;7.322;2022-08-21T00:11:06;98947.53;;;19.16;68.58
21594;BME280;10959;51.328;7.322;2022-08-21T00:13:34;98944.47;;;19.09;68.72
21594;BME280;10959;51.328;7.322;2022-08-21T00:16:02;98942.97;;;19.05;68.70
21594;BME280;10959;51.328;7.322;2022-08-21T00:18:29;98932.19;;;19.04;68.74
21594;BME280;10959;51.328;7.322;2022-08-21T00:20:56;98938.50;;;19.04;68.64
21594;BME280;10959;51.328;7.322;2022-08-21T00:23:24;98931.56;;;19.00;68.67
21594;BME280;10959;51.328;7.322;2022-08-21T00:25:51;98935.78;;;19.04;68.58
21594;BME280;10959;51.328;7.322;2022-08-21T00:28:17;98931.56;;;19.00;68.84
21594;BME280;10959;51.328;7.322;2022-08-21T00:30:45;98928.09;;;18.98;69.14
21594;BME280;10959;51.328;7.322;2022-08-21T00:33:12;98931.09;;;18.95;69.18
21594;BME280;10959;51.328;7.322;2022-08-21T00:35:41;98918.69;;;18.91;68.90
21594;BME280;10959;51.328;7.322;2022-08-21T00:38:09;98918.16;;;18.86;69.26
21594;BME280;10959;51.328;7.322;2022-08-21T00:40:38;98918.41;;;18.82;69.28
21594;BME280;10959;51.328;7.322;2022-08-21T00:43:07;98916.69;;;18.81;69.06
21594;BME280;10959;51.328;7.322;2022-08-21T00:45:34;98911.47;;;18.78;69.46
21594;BME280;10959;51.328;7.322;2022-08-21T00:48:03;98916.34;;;18.75;68.95
21594;BME280;10959;51.328;7.322;2022-08-21T00:50:33;98907.50;;;18.71;69.03
21594;BME280;10959;51.328;7.322;2022-08-21T00:53:01;98916.56;;;18.72;69.28
21594;BME280;10959;51.328;7.322;2022-08-21T00:55:29;98915.97;;;18.68;69.92
21594;BME280;10959;51.328;7.322;2022-08-21T00:57:57;98914.47;;;18.64;69.76
21594;BME280;10959;51.328;7.322;2022-08-21T01:00:28;98913.34;;;18.67;69.67
21594;BME280;10959;51.328;7.322;2022-08-21T01:02:55;98915.44;;;18.63;69.92
21594;BME280;10959;51.328;7.322;2022-08-21T01:05:24;98921.66;;;18.65;69.80
21594;BME280;10959;51.328;7.322;2022-08-21T01:07:52;98919.91;;;18.64;70.12
21594;BME280;10959;51.328;7.322;2022-08-21T01:10:19;98920.66;;;18.66;70.28
21594;BME280;10959;51.328;7.322;2022-08-21T01:12:46;98914.47;;;18.64;70.61
21594;BME280;10959;51.328;7.322;2022-08-21T01:15:14;98915.97;;;18.68;70.59
21594;BME280;10959;51.328;7.322;2022-08-21T01:17:41;98917.69;;;18.69;70.72
21594;BME280;10959;51.328;7.322;2022-08-21T01:20:11;98921.16;;;18.71;70.56
21594;BME280;10959;51.328;7.322;2022-08-21T01:22:39;98919.41;;;18.70;70.59
21594;BME280;10959;51.328;7.322;2022-08-21T01:25:07;98918.44;;;18.71;71.00
21594;BME280;10959;51.328;7.322;2022-08-21T01:27:33;98923.75;;;18.73;70.95
21594;BME280;10959;51.328;7.322;2022-08-21T01:30:06;98924.63;;;18.73;70.69
21594;BME280;10959;51.328;7.322;2022-08-21T01:32:34;98923.50;;;18.76;71.00
21594;BME280;10959;51.328;7.322;2022-08-21T01:35:00;98917.19;;;18.75;70.76
21594;BME280;10959;51.328;7.322;2022-08-21T01:37:27;98906.03;;;18.78;70.93
21594;BME280;10959;51.328;7.322;2022-08-21T01:39:55;98912.47;;;18.77;70.66
21594;BME280;10959;51.328;7.322;2022-08-21T01:42:22;98914.34;;;18.77;70.89
21594;BME280;10959;51.328;7.322;2022-08-21T01:44:48;98907.75;;;18.79;70.77
21594;BME280;10959;51.328;7.322;2022-08-21T01:47:16;98914.06;;;18.80;70.95
21594;BME280;10959;51.328;7.322;2022-08-21T01:49:43;98907.75;;;18.79;71.22
21594;BME280;10959;51.328;7.322;2022-08-21T01:52:11;98910.50;;;18.79;70.84
21594;BME280;10959;51.328;7.322;2022-08-21T01:54:38;98896.84;;;18.79;70.64
21594;BME280;10959;51.328;7.322;2022-08-21T01:57:07;98904.28;;;18.77;70.63
21594;BME280;10959;51.328;7.322;2022-08-21T01:59:34;98899.06;;;18.74;70.72
21594;BME280;10959;51.328;7.322;2022-08-21T02:02:01;98908.25;;;18.73;70.73
21594;BME280;10959;51.328;7.322;2022-08-21T02:04:28;98909.25;;;18.72;70.37
21594;BME280;10959;51.328;7.322;2022-08-21T02:06:55;98907.78;;;18.68;70.41
21594;BME280;10959;51.328;7.322;2022-08-21T02:09:22;98903.56;;;18.64;70.58
21594;BME280;10959;51.328;7.322;2022-08-21T02:11:49;98905.56;;;18.62;70.59
21594;BME280;10959;51.328;7.322;2022-08-21T02:14:18;98896.88;;;18.57;70.70
21594;BME280;10959;51.328;7.322;2022-08-21T02:16:45;98898.84;;;18.55;70.92
21594;BME280;10959;51.328;7.322;2022-08-21T02:19:13;98902.56;;;18.54;70.61
21594;BME280;10959;51.328;7.322;2022-08-21T02:21:41;98892.66;;;18.53;70.68
21594;BME280;10959;51.328;7.322;2022-08-21T02:24:09;98892.78;;;18.51;70.59
21594;BME280;10959;51.328;7.322;2022-08-21T02:26:36;98890.44;;;18.46;70.58
21594;BME280;10959;51.328;7.322;2022-08-21T02:29:03;98892.28;;;18.46;70.67
21594;BME280;10959;51.328;7.322;2022-08-21T02:31:32;98887.19;;;18.41;70.88
21594;BME280;10959;51.328;7.322;2022-08-21T02:33:58;98877.53;;;18.37;70.95
21594;BME280;10959;51.328;7.322;2022-08-21T02:36:25;98876.56;;;18.38;70.82
21594;BME280;10959;51.328;7.322;2022-08-21T02:38:52;98884.22;;;18.33;71.03
21594;BME280;10959;51.328;7.322;2022-08-21T02:41:20;98884.34;;;18.31;71.03
21594;BME280;10959;51.328;7.322;2022-08-21T02:43:48;98884.47;;;18.30;71.16
21594;BME280;10959;51.328;7.322;2022-08-21T02:46:16;98884.59;;;18.28;71.21
21594;BME280;10959;51.328;7.322;2022-08-21T02:48:45;98884.72;;;18.27;71.02
21594;BME280;10959;51.328;7.322;2022-08-21T02:51:14;98879.28;;;18.27;71.23
21594;BME280;10959;51.328;7.322;2022-08-21T02:53:42;98877.66;;;18.24;71.06
21594;BME280;10959;51.328;7.322;2022-08-21T02:56:10;98880.63;;;18.21;71.18
21594;BME280;10959;51.328;7.322;2022-08-21T02:58:40;98872.81;;;18.17;71.00
21594;BME280;10959;51.328;7.322;2022-08-21T03:01:08;98882.00;;;18.16;71.29
21594;BME280;10959;51.328;7.322;2022-08-21T03:03:36;98877.50;;;18.14;71.44
21594;BME280;10959;51.328;7.322;2022-08-21T03:06:05;98872.44;;;18.10;71.43
21594;BME280;10959;51.328;7.322;2022-08-21T03:08:33;98875.28;;;18.08;71.47
21594;BME280;10959;51.328;7.322;2022-08-21T03:11:00;98877.88;;;18.10;71.40
21594;BME280;10959;51.328;7.322;2022-08-21T03:13:27;98869.84;;;18.08;71.40
21594;BME280;10959;51.328;7.322;2022-08-21T03:15:54;98866.13;;;18.09;71.66
21594;BME280;10959;51.328;7.322;2022-08-21T03:18:21;98876.28;;;18.07;71.93
21594;BME280;10959;51.328;7.322;2022-08-21T03:20:48;98870.81;;;18.07;71.88
21594;BME280;10959;51.328;7.322;2022-08-21T03:23:17;98876.16;;;18.09;71.71
21594;BME280;10959;51.328;7.322;2022-08-21T03:25:44;98871.59;;;18.09;71.75
21594;BME280;10959;51.328;7.322;2022-08-21T03:28:13;98871.84;;;18.06;71.75
21594;BME280;10959;51.328;7.322;2022-08-21T03:30:40;98872.56;;;18.08;71.84
21594;BME280;10959;51.328;7.322;2022-08-21T03:33:07;98870.09;;;18.05;72.00
21594;BME280;10959;51.328;7.322;2022-08-21T03:35:33;98866.38;;;18.06;71.79
21594;BME280;10959;51.328;7.322;2022-08-21T03:38:00;98866.59;;;18.03;71.74
21594;BME280;10959;51.328;7.322;2022-08-21T03:40:28;98859.69;;;17.99;71.83
21594;BME280;10959;51.328;7.322;2022-08-21T03:42:55;98867.09;;;17.97;71.82
21594;BME280;10959;51.328;7.322;2022-08-21T03:45:21;98867.34;;;17.94;71.78
21594;BME280;10959;51.328;7.322;2022-08-21T03:47:54;98864.44;;;17.84;71.80
21594;BME280;10959;51.328;7.322;2022-08-21T03:50:23;98864.88;;;17.91;71.79
21594;BME280;10959;51.328;7.322;2022-08-21T03:52:50;98866.91;;;17.87;71.60
21594;BME280;10959;51.328;7.322;2022-08-21T03:55:17;98869.66;;;17.87;71.67
21594;BME280;10959;51.328;7.322;2022-08-21T03:57:45;98872.50;;;17.86;71.25
21594;BME280;10959;51.328;7.322;2022-08-21T04:00:13;98869.78;;;17.86;71.35
21594;BME280;10959;51.328;7.322;2022-08-21T04:02:40;98875.22;;;17.86;71.44
21594;BME280;10959;51.328;7.322;2022-08-21T04:05:07;98873.00;;;17.79;71.51
21594;BME280;10959;51.328;7.322;2022-08-21T04:07:34;98874.22;;;17.75;71.83
21594;BME280;10959;51.328;7.322;2022-08-21T04:10:01;98881.41;;;17.76;71.93
21594;BME280;10959;51.328;7.322;2022-08-21T04:12:27;98873.47;;;17.73;71.98
21594;BME280;10959;51.328;7.322;2022-08-21T04:14:56;98884.13;;;17.76;72.16
21594;BME280;10959;51.328;7.322;2022-08-21T04:17:22;98878.16;;;17.71;72.20
21594;BME280;10959;51.328;7.322;2022-08-21T04:19:49;98879.91;;;17.72;72.21
21594;BME280;10959;51.328;7.322;2022-08-21T04:22:16;98879.66;;;17.75;72.13
21594;BME280;10959;51.328;7.322;2022-08-21T04:24:42;98876.19;;;17.73;72.23
21594;BME280;10959;51.328;7.322;2022-08-21T04:27:09;98886.44;;;17.70;72.45
21594;BME280;10959;51.328;7.322;2022-08-21T04:29:36;98887.56;;;17.67;72.21
21594;BME280;10959;51.328;7.322;2022-08-21T04:32:04;98885.59;;;17.69;72.30
21594;BME280;10959;51.328;7.322;2022-08-21T04:34:31;98891.91;;;17.70;72.42
21594;BME280;10959;51.328;7.322;2022-08-21T04:36:57;98888.56;;;17.66;72.61
21594;BME280;10959;51.328;7.322;2022-08-21T04:39:24;98884.34;;;17.62;72.66
21594;BME280;10959;51.328;7.322;2022-08-21T04:41:51;98888.03;;;17.61;72.67
21594;BME280;10959;51.328;7.322;2022-08-21T04:44:17;98893.25;;;17.64;72.66
21594;BME280;10959;51.328;7.322;2022-08-21T04:46:44;98884.09;;;17.65;72.45
21594;BME280;10959;51.328;7.322;2022-08-21T04:49:11;98887.56;;;17.67;72.51
21594;BME280;10959;51.328;7.322;2022-08-21T04:51:38;98887.44;;;17.69;72.66
21594;BME280;10959;51.328;7.322;2022-08-21T04:54:09;98895.22;;;17.62;72.56
21594;BME280;10959;51.328;7.322;2022-08-21T04:56:39;98895.84;;;17.66;72.73
21594;BME280;10959;51.328;7.322;2022-08-21T04:59:11;98891.50;;;17.63;72.27
21594;BME280;10959;51.328;7.322;2022-08-21T05:01:40;98889.06;;;17.71;72.47
21594;BME280;10959;51.328;7.322;2022-08-21T05:04:09;98894.50;;;17.71;72.79
21594;BME280;10959;51.328;7.322;2022-08-21T05:06:39;98891.03;;;17.69;72.77
21594;BME280;10959;51.328;7.322;2022-08-21T05:09:07;98883.38;;;17.74;72.91
21594;BME280;10959;51.328;7.322;2022-08-21T05:11:35;98894.00;;;17.77;72.88
21594;BME280;10959;51.328;7.322;2022-08-21T05:14:03;98887.34;;;17.82;72.88
21594;BME280;10959;51.328;7.322;2022-08-21T05:16:30;98891.81;;;17.83;73.20
21594;BME280;10959;51.328;7.322;2022-08-21T05:18:56;98904.22;;;17.87;72.92
21594;BME280;10959;51.328;7.322;2022-08-21T05:21:23;98898.28;;;17.93;73.19
21594;BME280;10959;51.328;7.322;2022-08-21T05:23:51;98899.56;;;18.00;72.88
21594;BME280;10959;51.328;7.322;2022-08-21T05:26:18;98899.56;;;18.00;73.11
21594;BME280;10959;51.328;7.322;2022-08-21T05:28:44;98899.09;;;18.06;73.17
21594;BME280;10959;51.328;7.322;2022-08-21T05:31:11;98899.56;;;18.11;73.05
21594;BME280;10959;51.328;7.322;2022-08-21T05:33:38;98903.53;;;18.19;73.03
21594;BME280;10959;51.328;7.322;2022-08-21T05:36:04;98906.78;;;18.24;72.96
21594;BME280;10959;51.328;7.322;2022-08-21T05:38:31;98901.06;;;18.27;73.11
21594;BME280;10959;51.328;7.322;2022-08-21T05:40:59;98907.78;;;18.34;72.96
21594;BME280;10959;51.328;7.322;2022-08-21T05:43:25;98895.50;;;18.40;72.93
21594;BME280;10959;51.328;7.322;2022-08-21T05:45:52;98916.69;;;18.47;72.80
21594;BME280;10959;51.328;7.322;2022-08-21T05:48:21;98900.56;;;18.56;72.67
21594;BME280;10959;51.328;7.322;2022-08-21T05:50:50;98903.31;;;18.67;72.75
21594;BME280;10959;51.328;7.322;2022-08-21T05:53:18;98899.97;;;18.75;72.24
21594;BME280;10959;51.328;7.322;2022-08-21T05:55:45;98898.59;;;18.80;72.27
21594;BME280;10959;51.328;7.322;2022-08-21T05:58:15;98900.94;;;18.85;72.14
21594;BME280;10959;51.328;7.322;2022-08-21T06:00:42;98903.41;;;18.99;71.98
21594;BME280;10959;51.328;7.322;2022-08-21T06:03:12;98894.84;;;19.04;71.79
21594;BME280;10959;51.328;7.322;2022-08-21T06:05:39;98901.00;;;19.17;71.58
21594;BME280;10959;51.328;7.322;2022-08-21T06:08:05;98901.97;;;19.28;71.40
21594;BME280;10959;51.328;7.322;2022-08-21T06:10:32;98902.94;;;19.38;71.19
21594;BME280;10959;51.328;7.322;2022-08-21T06:12:58;98912.47;;;19.44;70.87
21594;BME280;10959;51.328;7.322;2022-08-21T06:15:26;98909.44;;;19.58;70.04
21594;BME280;10959;51.328;7.322;2022-08-21T06:17:54;98912.75;;;19.62;70.37
21594;BME280;10959;51.328;7.322;2022-08-21T06:20:21;98910.22;;;19.70;69.87
21594;BME280;10959;51.328;7.322;2022-08-21T06:22:48;98905.97;;;19.77;69.81
21594;BME280;10959;51.328;7.322;2022-08-21T06:25:14;98909.44;;;19.91;69.38
21594;BME280;10959;51.328;7.322;2022-08-21T06:27:41;98912.34;;;19.99;69.08
21594;BME280;10959;51.328;7.322;2022-08-21T06:30:08;98910.09;;;20.04;68.97
21594;BME280;10959;51.328;7.322;2022-08-21T06:32:37;98903.56;;;20.16;68.72
21594;BME280;10959;51.328;7.322;2022-08-21T06:35:05;98905.31;;;20.27;68.29
21594;BME280;10959;51.328;7.322;2022-08-21T06:37:31;98904.78;;;20.33;68.65
21594;BME280;10959;51.328;7.322;2022-08-21T06:39:58;98906.84;;;20.41;67.69
21594;BME280;10959;51.328;7.322;2022-08-21T06:42:25;98903.72;;;20.55;68.17
21594;BME280;10959;51.328;7.322;2022-08-21T06:44:53;98900.94;;;20.67;67.96
21594;BME280;10959;51.328;7.322;2022-08-21T06:47:19;98901.41;;;20.72;67.75
21594;BME280;10959;51.328;7.322;2022-08-21T06:49:47;98905.59;;;20.86;67.49
21594;BME280;10959;51.328;7.322;2022-08-21T06:52:13;98906.19;;;20.89;66.96
21594;BME280;10959;51.328;7.322;2022-08-21T06:54:40;98901.31;;;21.03;66.60
21594;BME280;10959;51.328;7.322;2022-08-21T06:57:07;98905.69;;;21.15;66.47
21594;BME280;10959;51.328;7.322;2022-08-21T06:59:33;98911.75;;;21.29;66.22
21594;BME280;10959;51.328;7.322;2022-08-21T07:02:00;98912.03;;;21.35;66.06
21594;BME280;10959;51.328;7.322;2022-08-21T07:04:26;98914.66;;;21.47;65.37
21594;BME280;10959;51.328;7.322;2022-08-21T07:06:54;98912.53;;;21.60;65.49
21594;BME280;10959;51.328;7.322;2022-08-21T07:09:21;98913.53;;;21.69;65.26
21594;BME280;10959;51.328;7.322;2022-08-21T07:11:50;98904.84;;;21.83;64.59
21594;BME280;10959;51.328;7.322;2022-08-21T07:14:18;98905.75;;;21.94;64.23
21594;BME280;10959;51.328;7.322;2022-08-21T07:16:45;98901.94;;;22.04;64.13
21594;BME280;10959;51.328;7.322;2022-08-21T07:19:11;98903.38;;;22.18;63.53
21594;BME280;10959;51.328;7.322;2022-08-21T07:21:38;98904.19;;;22.29;63.42
21594;BME280;10959;51.328;7.322;2022-08-21T07:24:06;98910.56;;;22.39;62.89
21594;BME280;10959;51.328;7.322;2022-08-21T07:26:32;98909.97;;;22.45;62.40
21594;BME280;10959;51.328;7.322;2022-08-21T07:28:59;98905.84;;;22.59;62.83
21594;BME280;10959;51.328;7.322;2022-08-21T07:31:26;98913.06;;;22.70;62.22
21594;BME280;10959;51.328;7.322;2022-08-21T07:33:53;98908.06;;;22.83;61.91
21594;BME280;10959;51.328;7.322;2022-08-21T07:36:19;98903.09;;;22.97;61.13
21594;BME280;10959;51.328;7.322;2022-08-21T07:38:46;98907.66;;;23.06;61.13
21594;BME280;10959;51.328;7.322;2022-08-21T07:41:16;98908.47;;;23.16;61.29
21594;BME280;10959;51.328;7.322;2022-08-21T07:43:43;98910.69;;;23.30;60.67
21594;BME280;10959;51.328;7.322;2022-08-21T07:46:10;98922.72;;;23.47;60.75
21594;BME280;10959;51.328;7.322;2022-08-21T07:48:37;98918.59;;;23.61;60.26
21594;BME280;10959;51.328;7.322;2022-08-21T07:51:06;98905.28;;;23.75;59.00
21594;BME280;10959;51.328;7.322;2022-08-21T07:53:33;98916.03;;;23.86;58.17
21594;BME280;10959;51.328;7.322;2022-08-21T07:55:59;98919.84;;;23.85;57.63
21594;BME280;10959;51.328;7.322;2022-08-21T07:58:27;98916.38;;;23.83;57.26
21594;BME280;10959;51.328;7.322;2022-08-21T08:00:54;98917.16;;;23.93;57.94
21594;BME280;10959;51.328;7.322;2022-08-21T08:03:20;98910.97;;;24.09;57.59
21594;BME280;10959;51.328;7.322;2022-08-21T08:05:47;98900.16;;;24.16;55.99
21594;BME280;10959;51.328;7.322;2022-08-21T08:08:13;98905.22;;;24.29;55.43
21594;BME280;10959;51.328;7.322;2022-08-21T08:10:40;98909.22;;;24.35;55.19
21594;BME280;10959;51.328;7.322;2022-08-21T08:13:07;98902.53;;;24.37;54.78
21594;BME280;10959;51.328;7.322;2022-08-21T08:15:36;98906.03;;;24.47;54.78
21594;BME280;10959;51.328;7.322;2022-08-21T08:18:02;98906.63;;;24.59;54.46
21594;BME280;10959;51.328;7.322;2022-08-21T08:20:29;98909.78;;;24.64;53.10
21594;BME280;10959;51.328;7.322;2022-08-21T08:22:56;98919.50;;;24.77;54.64
21594;BME280;10959;51.328;7.322;2022-08-21T08:25:23;98917.09;;;24.82;53.21
21594;BME280;10959;51.328;7.322;2022-08-21T08:27:51;98917.16;;;24.98;54.02
21594;BME280;10959;51.328;7.322;2022-08-21T08:30:19;98911.41;;;25.18;53.78
21594;BME280;10959;51.328;7.322;2022-08-21T08:32:47;98915.25;;;25.33;53.26
21594;BME280;10959;51.328;7.322;2022-08-21T08:35:15;98915.63;;;25.47;52.48
21594;BME280;10959;51.328;7.322;2022-08-21T08:37:42;98914.59;;;25.56;52.29
21594;BME280;10959;51.328;7.322;2022-08-21T08:40:11;98912.91;;;25.55;51.11
21594;BME280;10959;51.328;7.322;2022-08-21T08:42:38;98908.75;;;25.59;51.88
21594;BME280;10959;51.328;7.322;2022-08-21T08:45:08;98908.41;;;25.79;50.98
21594;BME280;10959;51.328;7.322;2022-08-21T08:47:38;98909.81;;;25.83;51.17
21594;BME280;10959;51.328;7.322;2022-08-21T08:50:11;98902.91;;;25.95;48.85
21594;BME280;10959;51.328;7.322;2022-08-21T08:52:43;98900.84;;;25.97;50.81
21594;BME280;10959;51.328;7.322;2022-08-21T08:55:14;98909.34;;;26.12;50.30
21594;BME280;10959;51.328;7.322;2022-08-21T08:57:45;98904.31;;;26.32;50.45
21594;BME280;10959;51.328;7.322;2022-08-21T09:00:15;98894.59;;;26.45;50.11
21594;BME280;10959;51.328;7.322;2022-08-21T09:02:43;98906.16;;;26.56;49.43
21594;BME280;10959;51.328;7.322;2022-08-21T09:05:19;98907.34;;;26.54;48.97
21594;BME280;10959;51.328;7.322;2022-08-21T09:07:55;98901.13;;;26.60;47.85
21594;BME280;10959;51.328;7.322;2022-08-21T09:10:30;98901.81;;;26.70;48.27
21594;BME280;10959;51.328;7.322;2022-08-21T09:13:09;98900.22;;;26.76;47.18
21594;BME280;10959;51.328;7.322;2022-08-21T09:15:46;98903.81;;;26.85;47.37
21594;BME280;10959;51.328;7.322;2022-08-21T09:18:28;98895.88;;;26.90;46.91
21594;BME280;10959;51.328;7.322;2022-08-21T09:21:11;98890.69;;;26.87;46.81
21594;BME280;10959;51.328;7.322;2022-08-21T09:23:49;98898.22;;;27.01;45.87
21594;BME280;10959;51.328;7.322;2022-08-21T09:26:18;98891.53;;;27.27;46.49
21594;BME280;10959;51.328;7.322;2022-08-21T09:28:50;98886.34;;;27.32;46.10
21594;BME280;10959;51.328;7.322;2022-08-21T09:31:22;98883.22;;;27.35;46.30
21594;BME280;10959;51.328;7.322;2022-08-21T09:33:49;98886.66;;;27.37;46.66
21594;BME280;10959;51.328;7.322;2022-08-21T09:36:24;98894.47;;;27.25;46.31
21594;BME280;10959;51.328;7.322;2022-08-21T09:38:53;98888.06;;;27.25;43.46
21594;BME280;10959;51.328;7.322;2022-08-21T09:41:26;98896.38;;;27.25;45.25
21594;BME280;10959;51.328;7.322;2022-08-21T09:43:54;98889.94;;;27.33;43.14
21594;BME280;10959;51.328;7.322;2022-08-21T09:46:23;98878.84;;;27.10;45.07
21594;BME280;10959;51.328;7.322;2022-08-21T09:48:51;98885.66;;;27.22;46.45
21594;BME280;10959;51.328;7.322;2022-08-21T09:51:21;98894.53;;;27.49;45.49
21594;BME280;10959;51.328;7.322;2022-08-21T09:53:53;98890.75;;;27.50;45.54
21594;BME280;10959;51.328;7.322;2022-08-21T09:56:26;98876.09;;;27.64;45.06
21594;BME280;10959;51.328;7.322;2022-08-21T09:59:26;98890.75;;;27.50;46.29
21594;BME280;10959;51.328;7.322;2022-08-21T10:01:56;98882.84;;;27.85;45.55
21594;BME280;10959;51.328;7.322;2022-08-21T10:04:27;98881.88;;;28.01;43.60
21594;BME280;10959;51.328;7.322;2022-08-21T10:06:53;98878.78;;;28.19;45.10
21594;BME280;10959;51.328;7.322;2022-08-21T10:09:22;98882.44;;;28.34;45.02
21594;BME280;10959;51.328;7.322;2022-08-21T10:11:54;98875.56;;;28.30;45.09
21594;BME280;10959;51.328;7.322;2022-08-21T10:14:40;98873.34;;;28.25;44.87
21594;BME280;10959;51.328;7.322;2022-08-21T10:17:16;98865.44;;;28.37;42.32
21594;BME280;10959;51.328;7.322;2022-08-21T10:19:52;98874.84;;;28.13;44.02
21594;BME280;10959;51.328;7.322;2022-08-21T10:22:38;98867.69;;;28.19;43.06
21594;BME280;10959;51.328;7.322;2022-08-21T10:25:16;98860.09;;;28.21;42.96
21594;BME280;10959;51.328;7.322;2022-08-21T10:27:51;98869.50;;;28.26;43.07
21594;BME280;10959;51.328;7.322;2022-08-21T10:30:36;98877.28;;;28.31;43.79
21594;BME280;10959;51.328;7.322;2022-08-21T10:33:14;98869.84;;;28.47;43.18
21594;BME280;10959;51.328;7.322;2022-08-21T10:35:47;98869.69;;;28.63;43.78
21594;BME280;10959;51.328;7.322;2022-08-21T10:38:44;98866.97;;;28.55;44.18
21594;BME280;10959;51.328;7.322;2022-08-21T10:41:21;98871.56;;;28.77;43.35
21594;BME280;10959;51.328;7.322;2022-08-21T10:43:59;98857.78;;;28.99;43.78
21594;BME280;10959;51.328;7.322;2022-08-21T10:46:41;98863.03;;;29.09;42.80
21594;BME280;10959;51.328;7.322;2022-08-21T10:49:20;98859.84;;;29.12;42.20
21594;BME280;10959;51.328;7.322;2022-08-21T10:51:56;98855.06;;;29.21;42.15
21594;BME280;10959;51.328;7.322;2022-08-21T10:54:34;98853.19;;;29.06;41.47
21594;BME280;10959;51.328;7.322;2022-08-21T10:57:11;98847.81;;;29.20;41.36
21594;BME280;10959;51.328;7.322;2022-08-21T10:59:42;98848.81;;;28.97;38.90
21594;BME280;10959;51.328;7.322;2022-08-21T11:02:13;98849.59;;;28.61;41.63
21594;BME280;10959;51.328;7.322;2022-08-21T11:04:49;98846.72;;;28.69;42.41
21594;BME280;10959;51.328;7.322;2022-08-21T11:07:21;98846.69;;;28.99;42.10
21594;BME280;10959;51.328;7.322;2022-08-21T11:09:49;98848.81;;;29.34;42.02
21594;BME280;10959;51.328;7.322;2022-08-21T11:12:23;98851.81;;;29.54;41.80
21594;BME280;10959;51.328;7.322;2022-08-21T11:14:56;98849.91;;;29.76;40.91
21594;BME280;10959;51.328;7.322;2022-08-21T11:17:32;98847.56;;;29.79;40.39
21594;BME280;10959;51.328;7.322;2022-08-21T11:20:06;98846.72;;;29.79;39.81
21594;BME280;10959;51.328;7.322;2022-08-21T11:22:38;98853.69;;;29.90;40.39
21594;BME280;10959;51.328;7.322;2022-08-21T11:25:11;98853.00;;;29.66;38.15
21594;BME280;10959;51.328;7.322;2022-08-21T11:27:44;98844.81;;;29.58;40.46
21594;BME280;10959;51.328;7.322;2022-08-21T11:30:13;98850.84;;;29.61;39.21
21594;BME280;10959;51.328;7.322;2022-08-21T11:33:01;98848.47;;;29.37;40.31
21594;BME280;10959;51.328;7.322;2022-08-21T11:35:35;98843.63;;;29.67;39.39
21594;BME280;10959;51.328;7.322;2022-08-21T11:38:21;98847.59;;;29.58;40.14
21594;BME280;10959;51.328;7.322;2022-08-21T11:41:03;98850.00;;;29.61;40.78
21594;BME280;10959;51.328;7.322;2022-08-21T11:43:38;98838.09;;;29.67;40.57
21594;BME280;10959;51.328;7.322;2022-08-21T11:46:17;98845.81;;;29.72;39.78
21594;BME280;10959;51.328;7.322;2022-08-21T11:48:55;98846.81;;;29.86;40.15
21594;BME280;10959;51.328;7.322;2022-08-21T11:51:29;98845.81;;;29.72;37.02
21594;BME280;10959;51.328;7.322;2022-08-21T11:54:03;98843.63;;;29.24;38.54
21594;BME280;10959;51.328;7.322;2022-08-21T11:56:35;98844.22;;;29.04;37.88
21594;BME280;10959;51.328;7.322;2022-08-21T11:59:09;98846.53;;;28.56;40.08
21594;BME280;10959;51.328;7.322;2022-08-21T12:01:41;98851.69;;;28.59;39.46
21594;BME280;10959;51.328;7.322;2022-08-21T12:04:17;98855.59;;;28.20;38.85
21594;BME280;10959;51.328;7.322;2022-08-21T12:06:44;98849.59;;;28.31;40.87
21594;BME280;10959;51.328;7.322;2022-08-21T12:09:29;98840.59;;;28.59;41.56
21594;BME280;10959;51.328;7.322;2022-08-21T12:12:02;98847.78;;;28.98;39.79
21594;BME280;10959;51.328;7.322;2022-08-21T12:14:39;98836.38;;;28.93;37.61
21594;BME280;10959;51.328;7.322;2022-08-21T12:17:08;98838.03;;;28.87;38.22
21594;BME280;10959;51.328;7.322;2022-08-21T12:19:39;98847.00;;;28.59;37.49
21594;BME280;10959;51.328;7.322;2022-08-21T12:22:11;98838.19;;;28.26;39.02
21594;BME280;10959;51.328;7.322;2022-08-21T12:24:42;98845.56;;;28.49;41.02
21594;BME280;10959;51.328;7.322;2022-08-21T12:27:26;98839.06;;;28.41;37.69
21594;BME280;10959;51.328;7.322;2022-08-21T12:29:59;98843.47;;;28.36;39.66
21594;BME280;10959;51.328;7.322;2022-08-21T12:32:28;98838.88;;;28.58;40.86
21594;BME280;10959;51.328;7.322;2022-08-21T12:35:02;98836.97;;;28.73;40.30
21594;BME280;10959;51.328;7.322;2022-08-21T12:37:37;98838.31;;;28.48;37.09
21594;BME280;10959;51.328;7.322;2022-08-21T12:40:11;98835.94;;;28.30;36.60
21594;BME280;10959;51.328;7.322;2022-08-21T12:42:41;98834.59;;;28.25;37.68
21594;BME280;10959;51.328;7.322;2022-08-21T12:45:17;98839.50;;;28.00;37.67
21594;BME280;10959;51.328;7.322;2022-08-21T12:47:48;98847.44;;;27.80;37.91
21594;BME280;10959;51.328;7.322;2022-08-21T12:50:20;98836.25;;;27.73;38.71
21594;BME280;10959;51.328;7.322;2022-08-21T12:52:54;98836.53;;;27.64;38.55
21594;BME280;10959;51.328;7.322;2022-08-21T12:55:28;98832.31;;;27.68;38.95
21594;BME280;10959;51.328;7.322;2022-08-21T12:57:55;98832.66;;;27.88;40.60
21594;BME280;10959;51.328;7.322;2022-08-21T13:00:25;98826.00;;;27.97;39.19
21594;BME280;10959;51.328;7.322;2022-08-21T13:02:54;98834.25;;;27.82;39.42
21594;BME280;10959;51.328;7.322;2022-08-21T13:05:28;98831.91;;;27.56;39.68
21594;BME280;10959;51.328;7.322;2022-08-21T13:07:55;98822.63;;;27.49;39.82
21594;BME280;10959;51.328;7.322;2022-08-21T13:10:24;98815.63;;;27.61;40.32
21594;BME280;10959;51.328;7.322;2022-08-21T13:12:54;98830.50;;;27.60;39.49